createdAt,value
2018-05-23T00:01:41.869Z,74.17
2018-05-23T00:04:08.151Z,71.44
2018-05-23T00:06:34.457Z,74.10
2018-05-23T00:09:00.675Z,75.44
2018-05-23T00:11:29.075Z,72.35
2018-05-23T00:13:55.341Z,75.25
2018-05-23T00:16:21.613Z,71.81
2018-05-23T00:18:48.654Z,72.68
2018-05-23T00:21:14.889Z,74.02
2018-05-23T00:23:41.169Z,74.45
2018-05-23T00:26:07.421Z,75.24
2018-05-23T00:28:33.653Z,74.36
2018-05-23T00:30:59.909Z,73.27
2018-05-23T00:33:26.166Z,74.35
2018-05-23T00:35:52.449Z,73.39
2018-05-23T00:38:18.728Z,73.10
2018-05-23T00:40:44.985Z,70.50
2018-05-23T00:43:11.289Z,69.81
2018-05-23T00:45:37.529Z,71.83
2018-05-23T00:48:03.835Z,74.03
2018-05-23T00:50:30.123Z,70.32
2018-05-23T00:52:59.715Z,71.43
2018-05-23T00:55:33.360Z,72.83
2018-05-23T00:58:00.362Z,71.19
2018-05-23T01:00:26.679Z,72.82
2018-05-23T01:02:52.957Z,69.38
2018-05-23T01:05:19.233Z,69.94
2018-05-23T01:07:45.495Z,70.70
2018-05-23T01:10:11.814Z,75.20
2018-05-23T01:12:38.118Z,74.64
2018-05-23T01:15:05.085Z,72.58
2018-05-23T01:17:32.096Z,72.44
2018-05-23T01:19:58.361Z,71.54
2018-05-23T01:22:25.381Z,73.15
2018-05-23T01:24:51.613Z,71.64
2018-05-23T01:27:17.909Z,76.19
2018-05-23T01:29:44.161Z,71.00
2018-05-23T01:32:10.446Z,71.28
2018-05-23T01:34:36.731Z,71.38
2018-05-23T01:37:03.013Z,77.17
2018-05-23T01:39:29.322Z,76.45
2018-05-23T01:41:55.581Z,77.09
2018-05-23T01:44:21.839Z,73.45
2018-05-23T01:46:48.842Z,73.65
2018-05-23T01:49:25.297Z,70.55
2018-05-23T01:51:51.561Z,70.59
2018-05-23T01:54:17.844Z,73.37
2018-05-23T01:56:44.145Z,72.12
2018-05-23T01:59:10.442Z,74.50
2018-05-23T02:01:36.697Z,76.92
2018-05-23T02:04:02.957Z,74.92
2018-05-23T02:06:29.232Z,74.80
2018-05-23T02:08:55.477Z,77.65
2018-05-23T02:11:21.759Z,72.86
2018-05-23T02:13:47.989Z,76.45
2018-05-23T02:16:14.265Z,78.07
2018-05-23T02:18:40.505Z,77.17
2018-05-23T02:21:06.769Z,78.51
2018-05-23T02:23:33.025Z,76.93
2018-05-23T02:25:59.308Z,78.77
2018-05-23T02:28:25.557Z,77.24
2018-05-23T02:30:51.842Z,76.20
2018-05-23T02:33:18.101Z,75.31
2018-05-23T02:35:45.081Z,77.71
2018-05-23T02:38:11.345Z,78.16
2018-05-23T02:40:37.598Z,77.17
2018-05-23T02:43:03.885Z,78.72
2018-05-23T02:45:30.178Z,77.46
2018-05-23T02:47:56.473Z,78.18
2018-05-23T02:50:22.742Z,76.68
2018-05-23T02:52:49.013Z,79.61
2018-05-23T02:55:15.269Z,77.55
2018-05-23T02:57:41.554Z,76.78
2018-05-23T03:00:07.845Z,77.37
2018-05-23T03:02:34.105Z,78.61
2018-05-23T03:05:00.341Z,78.45
2018-05-23T03:07:26.589Z,78.39
2018-05-23T03:09:52.861Z,74.59
2018-05-23T03:12:19.081Z,76.45
2018-05-23T03:14:46.130Z,72.51
2018-05-23T03:17:13.181Z,77.43
2018-05-23T03:19:40.190Z,74.85
2018-05-23T03:22:06.541Z,74.01
2018-05-23T03:24:32.762Z,76.35
2018-05-23T03:26:59.001Z,75.44
2018-05-23T03:29:25.310Z,73.95
2018-05-23T03:31:51.561Z,75.03
2018-05-23T03:34:17.818Z,77.71
2018-05-23T03:36:44.057Z,76.73
2018-05-23T03:39:10.337Z,77.23
2018-05-23T03:41:36.591Z,76.09
2018-05-23T03:44:02.914Z,76.94
2018-05-23T03:46:29.187Z,78.21
2018-05-23T03:48:55.495Z,75.91
2018-05-23T03:51:21.837Z,76.09
2018-05-23T03:53:48.163Z,74.32
2018-05-23T03:56:14.472Z,76.09
2018-05-23T03:58:41.458Z,74.14
2018-05-23T04:01:26.301Z,74.30
2018-05-23T04:04:11.841Z,76.21
2018-05-23T04:06:56.577Z,77.46
2018-05-23T04:09:22.869Z,76.89
2018-05-23T04:11:49.945Z,77.72
2018-05-23T04:14:16.222Z,77.26
2018-05-23T04:16:42.496Z,76.93
2018-05-23T04:19:09.485Z,76.67
2018-05-23T04:21:35.758Z,74.64
2018-05-23T04:24:02.089Z,75.15
2018-05-23T04:26:28.329Z,77.03
2018-05-23T04:28:55.377Z,76.37
2018-05-23T04:31:21.667Z,75.56
2018-05-23T04:33:48.706Z,77.75
2018-05-23T04:36:15.133Z,74.32
2018-05-23T04:38:42.130Z,74.77
2018-05-23T04:41:08.393Z,76.45
2018-05-23T04:43:35.405Z,75.28
2018-05-23T04:46:01.742Z,76.09
2018-05-23T04:48:28.073Z,77.33
2018-05-23T04:50:54.337Z,76.72
2018-05-23T04:53:20.641Z,76.46
2018-05-23T04:55:46.929Z,75.30
2018-05-23T04:58:13.203Z,75.71
2018-05-23T05:00:39.465Z,74.68
2018-05-23T05:03:05.728Z,73.76
2018-05-23T05:05:32.018Z,75.90
2018-05-23T05:07:58.321Z,74.98
2018-05-23T05:10:25.346Z,75.07
2018-05-23T05:12:51.606Z,73.54
2018-05-23T05:15:18.613Z,75.83
2018-05-23T05:17:44.864Z,73.47
2018-05-23T05:20:11.158Z,74.48
2018-05-23T05:22:37.477Z,75.01
2018-05-23T05:25:08.323Z,74.82
2018-05-23T05:27:35.580Z,73.01
2018-05-23T05:30:02.609Z,73.82
2018-05-23T05:32:28.851Z,73.07
2018-05-23T05:34:55.883Z,74.16
2018-05-23T05:37:22.159Z,72.31
2018-05-23T05:39:48.505Z,73.79
2018-05-23T05:42:14.730Z,72.92
2018-05-23T05:44:43.121Z,72.96
2018-05-23T05:47:09.381Z,73.78
2018-05-23T05:49:35.664Z,72.38
2018-05-23T05:52:02.733Z,72.40
2018-05-23T05:54:29.757Z,72.35
2018-05-23T05:56:56.172Z,72.23
2018-05-23T05:59:22.431Z,73.31
2018-05-23T06:01:48.742Z,72.95
2018-05-23T06:04:15.568Z,73.09
2018-05-23T06:06:41.893Z,73.35
2018-05-23T06:09:08.170Z,72.32
2018-05-23T06:11:34.437Z,72.28
2018-05-23T06:14:01.457Z,72.06
2018-05-23T06:16:27.727Z,72.78
2018-05-23T06:18:54.005Z,71.95
2018-05-23T06:21:20.341Z,71.83
2018-05-23T06:23:46.605Z,72.04
2018-05-23T06:26:12.907Z,72.19
2018-05-23T06:28:39.194Z,71.46
2018-05-23T06:31:05.462Z,71.62
2018-05-23T06:33:32.494Z,70.51
2018-05-23T06:35:58.757Z,71.34
2018-05-23T06:38:25.014Z,71.05
2018-05-23T06:40:51.269Z,70.73
2018-05-23T06:43:17.548Z,69.82
2018-05-23T06:45:44.515Z,69.55
2018-05-23T06:48:10.790Z,69.91
2018-05-23T06:50:37.085Z,68.97
2018-05-23T06:53:03.309Z,69.03
2018-05-23T06:55:30.345Z,68.82
2018-05-23T06:57:56.626Z,68.68
2018-05-23T07:00:22.939Z,67.83
2018-05-23T07:02:49.224Z,67.41
2018-05-23T07:05:15.493Z,67.04
2018-05-23T07:07:41.731Z,67.32
2018-05-23T07:10:08.761Z,68.29
2018-05-23T07:12:35.013Z,73.03
2018-05-23T07:15:01.322Z,72.71
2018-05-23T07:17:27.570Z,73.94
2018-05-23T07:19:53.807Z,73.86
2018-05-23T07:22:20.063Z,74.06
2018-05-23T07:24:47.113Z,73.83
2018-05-23T07:27:13.415Z,74.29
2018-05-23T07:29:39.653Z,73.75
2018-05-23T07:32:05.914Z,75.79
2018-05-23T07:34:32.937Z,76.13
2018-05-23T07:36:59.205Z,74.30
2018-05-23T07:39:25.453Z,74.33
2018-05-23T07:41:52.508Z,73.07
2018-05-23T07:44:18.769Z,72.75
2018-05-23T07:46:45.134Z,74.95
2018-05-23T07:49:11.397Z,74.89
2018-05-23T07:51:37.679Z,73.62
2018-05-23T07:54:03.917Z,72.49
2018-05-23T07:56:30.182Z,74.21
2018-05-23T07:58:56.480Z,74.94
2018-05-23T08:01:22.746Z,75.54
2018-05-23T08:03:48.997Z,75.00
2018-05-23T08:06:15.230Z,74.72
2018-05-23T08:08:41.486Z,73.40
2018-05-23T08:11:08.495Z,75.30
2018-05-23T08:13:34.777Z,76.41
2018-05-23T08:16:01.790Z,76.04
2018-05-23T08:18:28.117Z,76.30
2018-05-23T08:20:54.361Z,76.87
2018-05-23T08:23:20.645Z,74.55
2018-05-23T08:25:47.653Z,74.65
2018-05-23T08:28:13.909Z,74.27
2018-05-23T08:30:40.224Z,74.58
2018-05-23T08:33:06.521Z,73.33
2018-05-23T08:35:32.821Z,74.91
2018-05-23T08:37:59.105Z,74.44
2018-05-23T08:40:25.340Z,72.41
2018-05-23T08:42:51.614Z,70.79
2018-05-23T08:45:17.872Z,70.07
2018-05-23T08:47:44.918Z,69.90
2018-05-23T08:50:11.237Z,69.55
2018-05-23T08:52:38.768Z,70.40
2018-05-23T08:55:05.989Z,68.02
2018-05-23T08:57:33.021Z,67.69
2018-05-23T08:59:59.364Z,65.60
2018-05-23T09:02:25.630Z,65.87
2018-05-23T09:04:52.015Z,62.97
2018-05-23T09:07:18.962Z,61.64
2018-05-23T09:09:45.273Z,60.00
2018-05-23T09:12:11.629Z,62.32
2018-05-23T09:14:37.946Z,58.04
2018-05-23T09:17:04.260Z,59.70
2018-05-23T09:19:31.273Z,58.16
2018-05-23T09:21:57.557Z,56.98
2018-05-23T09:24:23.788Z,53.89
2018-05-23T09:26:50.083Z,55.98
2018-05-23T09:29:16.375Z,56.06
2018-05-23T09:31:42.661Z,55.78
2018-05-23T09:34:08.949Z,52.56
2018-05-23T09:36:35.242Z,52.18
2018-05-23T09:39:01.546Z,52.82
2018-05-23T09:41:27.865Z,46.72
2018-05-23T09:43:54.117Z,51.75
2018-05-23T09:46:20.403Z,51.06
2018-05-23T09:48:46.687Z,46.42
2018-05-23T09:51:12.993Z,45.38
2018-05-23T09:53:39.286Z,46.99
2018-05-23T09:56:05.550Z,46.27
2018-05-23T09:58:32.630Z,46.44
2018-05-23T10:00:58.933Z,44.29
2018-05-23T10:03:25.964Z,41.35
2018-05-23T10:05:52.284Z,42.64
2018-05-23T10:08:18.544Z,41.72
2018-05-23T10:10:45.573Z,40.35
2018-05-23T10:13:11.878Z,40.57
2018-05-23T10:15:38.126Z,39.41
2018-05-23T10:18:04.370Z,38.73
2018-05-23T10:20:30.633Z,37.94
2018-05-23T10:22:56.901Z,36.82
2018-05-23T10:25:23.920Z,35.59
2018-05-23T10:27:50.170Z,34.74
2018-05-23T10:30:17.196Z,34.47
2018-05-23T10:32:43.421Z,32.99
2018-05-23T10:35:09.674Z,34.18
2018-05-23T10:37:35.957Z,32.59
2018-05-23T10:40:02.237Z,31.19
2018-05-23T10:42:28.502Z,31.50
2018-05-23T10:44:55.562Z,31.30
2018-05-23T10:47:22.606Z,30.14
2018-05-23T10:49:48.881Z,28.86
2018-05-23T10:52:15.141Z,29.97
2018-05-23T10:54:41.410Z,30.25
2018-05-23T10:57:07.760Z,29.40
2018-05-23T10:59:33.989Z,29.92
2018-05-23T11:02:01.035Z,30.26
2018-05-23T11:04:27.269Z,28.59
2018-05-23T11:06:53.574Z,29.71
2018-05-23T11:09:19.868Z,27.80
2018-05-23T11:11:46.840Z,28.86
2018-05-23T11:14:13.093Z,28.46
2018-05-23T11:16:39.349Z,28.92
2018-05-23T11:19:05.628Z,28.43
2018-05-23T11:21:31.901Z,27.43
2018-05-23T11:23:58.239Z,25.69
2018-05-23T11:26:24.542Z,26.22
2018-05-23T11:28:50.837Z,25.32
2018-05-23T11:31:17.104Z,26.29
2018-05-23T11:33:43.378Z,26.43
2018-05-23T11:36:09.712Z,26.84
2018-05-23T11:38:35.985Z,26.50
2018-05-23T11:41:02.241Z,26.69
2018-05-23T11:43:29.272Z,26.88
2018-05-23T11:45:55.565Z,26.96
2018-05-23T11:48:21.832Z,26.75
2018-05-23T11:50:48.155Z,27.87
2018-05-23T11:53:14.674Z,26.87
2018-05-23T11:55:40.954Z,26.92
2018-05-23T11:58:07.227Z,28.78
2018-05-23T12:00:33.524Z,28.12
2018-05-23T12:02:59.793Z,29.44
2018-05-23T12:05:26.798Z,28.13
2018-05-23T12:07:53.055Z,27.54
2018-05-23T12:10:19.444Z,27.76
2018-05-23T12:12:45.692Z,28.19
2018-05-23T12:15:11.953Z,28.38
2018-05-23T12:17:38.257Z,28.14
2018-05-23T12:20:04.575Z,26.47
2018-05-23T12:22:30.856Z,26.85
2018-05-23T12:24:57.168Z,27.79
2018-05-23T12:27:23.525Z,27.29
2018-05-23T12:29:49.740Z,27.43
2018-05-23T12:32:15.997Z,27.10
2018-05-23T12:34:42.257Z,27.83
2018-05-23T12:37:09.332Z,25.85
2018-05-23T12:39:35.660Z,26.50
2018-05-23T12:42:02.711Z,25.70
2018-05-23T12:44:29.693Z,26.96
2018-05-23T12:46:55.962Z,25.28
2018-05-23T12:49:22.255Z,28.22
2018-05-23T12:51:48.513Z,28.35
2018-05-23T12:54:14.829Z,26.25
2018-05-23T12:56:41.141Z,26.60
2018-05-23T12:59:08.151Z,27.09
2018-05-23T13:01:34.443Z,29.04
2018-05-23T13:04:00.702Z,30.03
2018-05-23T13:06:26.977Z,30.03
2018-05-23T13:08:53.238Z,27.75
2018-05-23T13:11:20.301Z,29.03
2018-05-23T13:13:47.273Z,29.75
2018-05-23T13:16:13.533Z,29.92
2018-05-23T13:18:39.820Z,31.49
2018-05-23T13:21:06.889Z,31.54
2018-05-23T13:23:33.161Z,29.79
2018-05-23T13:25:59.486Z,29.93
2018-05-23T13:28:25.713Z,32.30
2018-05-23T13:30:52.041Z,31.68
2018-05-23T13:33:18.385Z,32.22
2018-05-23T13:35:44.689Z,31.67
2018-05-23T13:38:11.702Z,32.17
2018-05-23T13:40:37.989Z,34.29
2018-05-23T13:43:05.032Z,32.89
2018-05-23T13:45:31.309Z,33.28
2018-05-23T13:47:57.601Z,33.72
2018-05-23T13:50:24.669Z,33.48
2018-05-23T13:52:50.964Z,34.06
2018-05-23T13:55:17.292Z,33.13
2018-05-23T13:57:43.568Z,34.59
2018-05-23T14:00:09.881Z,34.05
2018-05-23T14:02:36.131Z,34.65
2018-05-23T14:05:02.437Z,35.10
2018-05-23T14:07:28.732Z,36.40
2018-05-23T14:09:55.006Z,35.73
2018-05-23T14:12:21.329Z,38.46
2018-05-23T14:14:47.613Z,39.79
2018-05-23T14:17:14.644Z,39.01
2018-05-23T14:19:40.885Z,39.59
2018-05-23T14:22:07.166Z,39.84
2018-05-23T14:24:33.474Z,41.84
2018-05-23T14:27:00.502Z,45.78
2018-05-23T14:29:26.789Z,47.46
2018-05-23T14:31:53.053Z,48.97
2018-05-23T14:34:19.328Z,51.81
2018-05-23T14:36:46.396Z,52.10
2018-05-23T14:39:12.730Z,53.83
2018-05-23T14:41:39.716Z,53.56
2018-05-23T14:44:06.041Z,54.78
2018-05-23T14:46:32.348Z,56.47
2018-05-23T14:48:59.353Z,55.10
2018-05-23T14:51:25.631Z,56.23
2018-05-23T14:53:52.684Z,57.27
2018-05-23T14:56:19.783Z,58.28
2018-05-23T14:58:46.001Z,60.53
2018-05-23T15:01:12.301Z,59.89
2018-05-23T15:03:39.302Z,60.50
2018-05-23T15:06:05.572Z,62.02
2018-05-23T15:08:31.901Z,62.82
2018-05-23T15:10:58.173Z,62.47
2018-05-23T15:13:25.209Z,64.04
2018-05-23T15:15:51.481Z,62.45
2018-05-23T15:18:17.774Z,61.80
2018-05-23T15:20:44.060Z,63.83
2018-05-23T15:23:10.297Z,65.15
2018-05-23T15:25:36.537Z,64.65
2018-05-23T15:28:02.821Z,66.13
2018-05-23T15:30:29.115Z,65.82
2018-05-23T15:32:55.376Z,67.31
2018-05-23T15:35:21.625Z,67.92
2018-05-23T15:37:47.978Z,66.28
2018-05-23T15:40:14.982Z,67.11
2018-05-23T15:42:41.279Z,67.79
2018-05-23T15:45:07.613Z,69.86
2018-05-23T15:47:34.625Z,67.99
2018-05-23T15:50:00.895Z,67.73
2018-05-23T15:52:27.940Z,66.67
2018-05-23T15:54:54.896Z,68.85
2018-05-23T15:57:21.885Z,68.82
2018-05-23T15:59:48.146Z,69.03
2018-05-23T16:02:14.428Z,69.62
2018-05-23T16:04:41.385Z,69.61
2018-05-23T16:07:07.692Z,67.76
2018-05-23T16:09:33.967Z,68.53
2018-05-23T16:12:00.265Z,71.70
2018-05-23T16:14:26.529Z,68.01
2018-05-23T16:16:52.788Z,72.52
2018-05-23T16:19:19.046Z,71.58
2018-05-23T16:21:45.321Z,68.41
2018-05-23T16:24:12.331Z,68.24
2018-05-23T16:26:38.569Z,69.81
2018-05-23T16:29:04.851Z,69.79
2018-05-23T16:31:31.861Z,69.04
2018-05-23T16:33:58.140Z,69.12
2018-05-23T16:36:25.141Z,67.44
2018-05-23T16:38:51.400Z,64.10
2018-05-23T16:41:17.640Z,68.80
2018-05-23T16:43:43.868Z,69.44
2018-05-23T16:46:10.166Z,68.39
2018-05-23T16:48:36.458Z,72.13
2018-05-23T16:51:06.544Z,72.49
2018-05-23T16:53:32.947Z,71.96
2018-05-23T16:55:59.226Z,71.69
2018-05-23T16:58:25.520Z,71.60
2018-05-23T17:00:51.812Z,71.26
2018-05-23T17:03:18.077Z,73.39
2018-05-23T17:05:45.119Z,73.43
2018-05-23T17:08:12.093Z,70.49
2018-05-23T17:10:38.385Z,70.30
2018-05-23T17:13:04.686Z,70.58
2018-05-23T17:15:30.985Z,71.23
2018-05-23T17:17:58.002Z,68.78
2018-05-23T17:20:24.277Z,68.04
2018-05-23T17:22:51.309Z,68.87
2018-05-23T17:25:17.587Z,70.03
2018-05-23T17:27:43.890Z,70.33
2018-05-23T17:30:10.885Z,70.41
2018-05-23T17:32:39.139Z,72.41
2018-05-23T17:35:05.698Z,73.48
2018-05-23T17:37:32.033Z,70.93
2018-05-23T17:39:58.349Z,70.63
2018-05-23T17:42:25.318Z,72.36
2018-05-23T17:44:51.582Z,72.83
2018-05-23T17:47:18.191Z,70.95
2018-05-23T17:49:44.496Z,70.89
2018-05-23T17:52:10.818Z,72.54
2018-05-23T17:54:37.064Z,70.34
2018-05-23T17:57:03.980Z,71.23
2018-05-23T17:59:30.221Z,72.73
2018-05-23T18:01:56.531Z,73.05
2018-05-23T18:04:22.769Z,69.48
2018-05-23T18:06:49.046Z,69.23
2018-05-23T18:09:15.358Z,71.94
2018-05-23T18:11:41.605Z,71.14
2018-05-23T18:14:07.908Z,70.37
2018-05-23T18:16:34.177Z,70.98
2018-05-23T18:19:00.448Z,70.03
2018-05-23T18:21:27.484Z,69.50
2018-05-23T18:23:53.766Z,69.40
2018-05-23T18:26:20.026Z,69.59
2018-05-23T18:28:46.301Z,70.36
2018-05-23T18:31:13.342Z,70.39
2018-05-23T18:33:40.350Z,69.40
2018-05-23T18:36:06.674Z,69.17
2018-05-23T18:38:32.996Z,69.72
2018-05-23T18:40:59.997Z,69.37
2018-05-23T18:43:26.340Z,70.07
2018-05-23T18:45:52.558Z,70.62
2018-05-23T18:48:18.781Z,69.80
2018-05-23T18:50:45.082Z,70.74
2018-05-23T18:53:12.118Z,69.86
2018-05-23T18:55:38.446Z,70.04
2018-05-23T18:58:05.455Z,69.98
2018-05-23T19:00:31.793Z,69.74
2018-05-23T19:02:58.118Z,68.95
2018-05-23T19:05:24.419Z,68.30
2018-05-23T19:07:50.683Z,70.30
2018-05-23T19:10:16.941Z,67.77
2018-05-23T19:12:43.285Z,67.79
2018-05-23T19:15:09.641Z,66.69
2018-05-23T19:17:35.949Z,67.77
2018-05-23T19:20:02.299Z,67.57
2018-05-23T19:22:29.345Z,68.03
2018-05-23T19:24:55.640Z,68.61
2018-05-23T19:27:22.690Z,68.52
2018-05-23T19:29:49.730Z,70.64
2018-05-23T19:32:15.975Z,69.37
2018-05-23T19:34:43.918Z,69.20
2018-05-23T19:37:10.146Z,68.56
2018-05-23T19:39:36.465Z,69.87
2018-05-23T19:42:02.763Z,68.91
2018-05-23T19:44:29.798Z,68.44
2018-05-23T19:46:56.077Z,68.06
2018-05-23T19:49:22.362Z,68.67
2018-05-23T19:51:48.654Z,67.68
2018-05-23T19:54:14.907Z,67.20
2018-05-23T19:56:42.259Z,68.59
2018-05-23T19:59:08.629Z,68.53
2018-05-23T20:01:35.176Z,68.34
2018-05-23T20:04:03.238Z,69.64
2018-05-23T20:06:36.573Z,68.83
2018-05-23T20:09:04.491Z,68.75
2018-05-23T20:11:30.850Z,69.75
2018-05-23T20:13:57.240Z,72.35
2018-05-23T20:16:23.540Z,71.49
2018-05-23T20:18:50.290Z,70.30
2018-05-23T20:21:16.807Z,69.28
2018-05-23T20:23:43.090Z,69.48
2018-05-23T20:26:10.349Z,69.89
2018-05-23T20:28:36.677Z,70.73
2018-05-23T20:31:03.729Z,70.80
2018-05-23T20:33:30.768Z,71.81
2018-05-23T20:35:57.302Z,72.71
2018-05-23T20:38:23.617Z,72.94
2018-05-23T20:40:51.159Z,73.62
2018-05-23T20:43:17.477Z,73.60
2018-05-23T20:45:43.749Z,74.44
2018-05-23T20:48:10.026Z,73.39
2018-05-23T20:50:37.093Z,73.03
2018-05-23T20:53:04.144Z,74.03
2018-05-23T20:55:30.660Z,74.18
2018-05-23T20:57:57.718Z,72.89
2018-05-23T21:00:25.540Z,73.01
2018-05-23T21:02:52.601Z,73.13
2018-05-23T21:05:19.029Z,73.88
2018-05-23T21:07:45.185Z,72.55
2018-05-23T21:10:11.457Z,72.58
2018-05-23T21:12:37.730Z,73.24
2018-05-23T21:15:03.986Z,74.28
2018-05-23T21:17:30.253Z,73.90
2018-05-23T21:19:56.517Z,71.53
2018-05-23T21:22:26.076Z,71.86
2018-05-23T21:24:52.358Z,72.08
2018-05-23T21:27:18.562Z,73.05
2018-05-23T21:29:45.770Z,71.09
2018-05-23T21:32:12.057Z,71.66
2018-05-23T21:34:38.368Z,71.78
2018-05-23T21:37:05.381Z,73.14
2018-05-23T21:39:31.609Z,73.41
2018-05-23T21:41:58.623Z,73.96
2018-05-23T21:44:24.928Z,74.16
2018-05-23T21:46:51.225Z,74.49
2018-05-23T21:49:18.261Z,74.28
2018-05-23T21:51:44.533Z,72.25
2018-05-23T21:54:10.782Z,72.04
2018-05-23T21:56:37.010Z,72.70
2018-05-23T21:59:03.293Z,72.05
2018-05-23T22:01:29.568Z,72.61
2018-05-23T22:03:55.873Z,73.67
2018-05-23T22:06:22.185Z,73.38
2018-05-23T22:08:48.429Z,73.34
2018-05-23T22:11:14.709Z,73.32
2018-05-23T22:13:41.708Z,73.91
2018-05-23T22:16:07.986Z,73.80
2018-05-23T22:18:34.997Z,71.81
2018-05-23T22:21:01.269Z,71.08
2018-05-23T22:23:28.285Z,72.10
2018-05-23T22:25:54.541Z,71.78
2018-05-23T22:28:20.832Z,72.26
2018-05-23T22:30:47.065Z,72.47
2018-05-23T22:33:13.352Z,72.63
2018-05-23T22:35:39.600Z,72.18
2018-05-23T22:38:06.617Z,73.29
2018-05-23T22:40:32.849Z,73.56
2018-05-23T22:42:59.141Z,72.62
2018-05-23T22:45:25.438Z,72.73
2018-05-23T22:47:51.701Z,74.50
2018-05-23T22:50:18.710Z,73.75
2018-05-23T22:52:45.002Z,73.33
2018-05-23T22:55:11.273Z,74.49
2018-05-23T22:57:37.581Z,73.58
2018-05-23T23:00:03.877Z,73.36
2018-05-23T23:02:30.309Z,73.93
2018-05-23T23:04:56.598Z,72.86
2018-05-23T23:07:22.917Z,73.24
2018-05-23T23:09:49.973Z,74.42
2018-05-23T23:12:16.985Z,72.80
2018-05-23T23:14:43.281Z,74.31
2018-05-23T23:17:09.585Z,73.66
2018-05-23T23:19:36.631Z,73.71
2018-05-23T23:22:03.642Z,72.51
2018-05-23T23:24:29.916Z,74.80
2018-05-23T23:26:56.165Z,73.89
2018-05-23T23:29:23.168Z,73.61
2018-05-23T23:31:49.437Z,73.55
2018-05-23T23:34:15.729Z,72.71
2018-05-23T23:36:42.044Z,72.81
2018-05-23T23:39:08.293Z,73.79
2018-05-23T23:41:34.661Z,73.22
2018-05-23T23:44:00.889Z,74.10
2018-05-23T23:46:27.167Z,74.13
2018-05-23T23:48:54.251Z,75.30
2018-05-23T23:51:20.489Z,74.89
2018-05-23T23:53:46.791Z,76.40
2018-05-23T23:56:13.808Z,76.34
2018-05-23T23:58:40.045Z,74.53
